createdAt,value
2023-05-28T00:14:22.893Z,18.70
2023-05-28T00:29:27.928Z,18.50
2023-05-28T00:44:35.379Z,18.30
2023-05-28T00:59:38.474Z,18.00
2023-05-28T01:14:41.427Z,17.80
2023-05-28T01:29:43.930Z,17.80
2023-05-28T01:44:53.112Z,17.50
2023-05-28T01:59:56.122Z,17.20
2023-05-28T02:14:59.446Z,17.00
2023-05-28T02:30:02.554Z,17.00
2023-05-28T02:45:06.377Z,16.80
2023-05-28T03:00:13.631Z,16.00
2023-05-28T03:15:17.077Z,16.10
2023-05-28T03:30:20.188Z,16.00
2023-05-28T03:45:25.951Z,14.90
2023-05-28T04:00:31.359Z,15.10
2023-05-28T04:15:36.464Z,14.90
2023-05-28T04:30:39.742Z,14.70
2023-05-28T04:45:43.033Z,16.10
2023-05-28T05:00:45.919Z,17.90
2023-05-28T05:15:49.972Z,19.30
2023-05-28T05:30:53.725Z,18.40
2023-05-28T05:45:57.602Z,18.90
2023-05-28T06:01:00.941Z,19.50
2023-05-28T06:16:04.765Z,19.80
2023-05-28T06:31:08.125Z,19.20
2023-05-28T06:46:11.232Z,18.20
2023-05-28T07:01:14.520Z,18.20
2023-05-28T07:16:33.364Z,18.20
2023-05-28T07:31:39.876Z,19.30
2023-05-28T07:46:49.657Z,19.70
2023-05-28T08:02:03.805Z,21.30
2023-05-28T08:17:10.579Z,21.20
2023-05-28T08:32:27.298Z,21.10
2023-05-28T08:47:34.167Z,21.30
2023-05-28T09:02:42.941Z,21.60
2023-05-28T09:17:49.303Z,21.30
2023-05-28T09:33:07.648Z,21.90
2023-05-28T09:48:10.391Z,22.10
2023-05-28T10:03:29.506Z,22.40
2023-05-28T10:18:33.860Z,22.60
2023-05-28T10:33:44.765Z,23.30
2023-05-28T10:49:17.480Z,23.40
2023-05-28T11:04:20.468Z,24.10
2023-05-28T11:19:24.494Z,23.70
2023-05-28T11:34:27.502Z,24.20
2023-05-28T11:49:30.462Z,24.00
2023-05-28T12:04:33.816Z,24.80
2023-05-28T12:19:37.851Z,24.30
2023-05-28T12:34:40.484Z,24.20
2023-05-28T12:49:42.983Z,24.00
2023-05-28T13:04:45.962Z,24.30
2023-05-28T13:19:49.673Z,24.70
2023-05-28T13:34:52.724Z,24.40
2023-05-28T13:49:55.717Z,24.20
2023-05-28T14:04:58.814Z,24.00
2023-05-28T14:20:01.735Z,24.10
2023-05-28T14:35:04.610Z,23.60
2023-05-28T14:50:08.579Z,23.80
2023-05-28T15:05:11.910Z,24.00
2023-05-28T15:20:14.917Z,23.00
2023-05-28T15:35:17.887Z,22.90
2023-05-28T15:50:21.369Z,23.00
2023-05-28T16:05:24.821Z,22.80
2023-05-28T16:20:27.640Z,22.80
2023-05-28T16:35:30.605Z,22.70
2023-05-28T16:50:33.801Z,22.80
2023-05-28T17:05:40.636Z,23.10
2023-05-28T17:20:43.276Z,22.80
2023-05-28T17:35:46.095Z,22.30
2023-05-28T17:50:48.717Z,22.10
2023-05-28T18:05:51.820Z,22.10
2023-05-28T18:20:54.917Z,21.90
2023-05-28T18:35:58.352Z,21.70
2023-05-28T18:51:02.120Z,22.90
2023-05-28T19:06:04.748Z,21.10
2023-05-28T19:21:08.133Z,21.10
2023-05-28T19:36:14.784Z,20.80
2023-05-28T19:51:18.095Z,20.40
2023-05-28T20:06:21.862Z,19.90
2023-05-28T20:21:26.425Z,19.90
2023-05-28T20:36:30.322Z,19.70
2023-05-28T20:51:32.998Z,19.40
2023-05-28T21:06:35.750Z,19.40
2023-05-28T21:21:38.686Z,18.80
2023-05-28T21:36:41.332Z,18.20
2023-05-28T21:51:44.121Z,17.60
2023-05-28T22:06:50.362Z,17.40
2023-05-28T22:21:53.279Z,17.00
2023-05-28T22:36:57.108Z,17.00
2023-05-28T22:52:01.539Z,16.60
2023-05-28T23:07:04.184Z,16.60
2023-05-28T23:22:07.094Z,16.60
2023-05-28T23:37:10.640Z,16.60
2023-05-28T23:52:13.340Z,16.40
